Anch, Alaska
Current Conditions -  °F | °C
As of 7:58 PM on Saturday 25 Oct 2014 (Local Time) from PAED Reporting Station
Overcast Overcast  
Wind Chill: -1°   Ceiling: 4900
Heat Index: -1°   Visibility: 10mi
Dew Point: -4°   Wind: 0mph
Humidity: 83%   Direction: NA
Pressure: 29.83"   Gusts: NA
Location:  61.2265°N, 149.62°W
Report Text: PAED 260358Z AUTO 00000KT 10SM OVC049 M01/M03 A2983 RMK AO2 SLP099 T10101035 $
Loading
Personal Weather Stations






























Interactive Weather Map
Tropical Storm Tracking
New forecast layout! Learn more

10-Day Weather Forecast

Advertisements
Track Severe Weather on mobile